Terminal Aerodrome Forecast
Issued by NWS Charleston, WV

Current Version | Previous Version | Graphics & Text | Print | Product List | Glossary On
Versions: 1 2 3 4 5 6 7 8 9 10 11 12 13 14 15 16 17 18 19 20 21 22 23 24 25 26 27
624
FTUS41 KRLX 220909 AAA
TAFPKB
TAF AMD
KPKB 220909Z 2209/2306 00000KT P6SM VCSH OVC090
     FM221300 VRB03KT P6SM -SHRA BKN026
     FM221600 VRB03KT 6SM -SHRA BKN013
     FM222000 VRB03KT P6SM BKN013
     FM230200 VRB03KT P6SM BKN022=

USA.gov is the U.S. government's official web portal to all federal, state and local government web resources and services.